sensor_id;sensor_type;location;lat;lon;timestamp;pressure;altitude;pressure_sealevel;temperature;humidity
11041;BME280;5573;49.592;8.662;2022-07-15T00:00:15;100192.31;;;15.15;80.24
11041;BME280;5573;49.592;8.662;2022-07-15T00:02:43;100207.38;;;15.10;80.96
11041;BME280;5573;49.592;8.662;2022-07-15T00:05:11;100209.75;;;15.01;81.42
11041;BME280;5573;49.592;8.662;2022-07-15T00:07:39;100208.63;;;14.91;83.69
11041;BME280;5573;49.592;8.662;2022-07-15T00:10:07;100215.34;;;14.90;84.67
11041;BME280;5573;49.592;8.662;2022-07-15T00:12:40;100204.31;;;14.83;86.27
11041;BME280;5573;49.592;8.662;2022-07-15T00:15:09;100201.94;;;14.81;83.54
11041;BME280;5573;49.592;8.662;2022-07-15T00:17:39;100199.97;;;14.75;84.18
11041;BME280;5573;49.592;8.662;2022-07-15T00:20:09;100194.84;;;14.73;86.33
11041;BME280;5573;49.592;8.662;2022-07-15T00:22:37;100194.78;;;14.84;83.35
11041;BME280;5573;49.592;8.662;2022-07-15T00:25:06;100204.31;;;14.87;84.19
11041;BME280;5573;49.592;8.662;2022-07-15T00:27:35;100197.22;;;14.78;83.34
11041;BME280;5573;49.592;8.662;2022-07-15T00:30:03;100205.13;;;14.80;81.39
11041;BME280;5573;49.592;8.662;2022-07-15T00:32:32;100202.75;;;14.78;82.88
11041;BME280;5573;49.592;8.662;2022-07-15T00:35:01;100200.38;;;14.73;82.38
11041;BME280;5573;49.592;8.662;2022-07-15T00:37:29;100208.72;;;14.70;84.27
11041;BME280;5573;49.592;8.662;2022-07-15T00:39:56;100203.97;;;14.63;84.49
11041;BME280;5573;49.592;8.662;2022-07-15T00:42:24;100207.53;;;14.60;85.51
11041;BME280;5573;49.592;8.662;2022-07-15T00:45:11;100211.47;;;14.66;86.02
11041;BME280;5573;49.592;8.662;2022-07-15T00:47:39;100217.34;;;14.86;85.90
11041;BME280;5573;49.592;8.662;2022-07-15T00:50:09;100208.25;;;14.93;85.14
11041;BME280;5573;49.592;8.662;2022-07-15T00:52:39;100211.41;;;14.95;85.84
11041;BME280;5573;49.592;8.662;2022-07-15T00:55:09;100202.66;;;14.96;84.85
11041;BME280;5573;49.592;8.662;2022-07-15T00:57:40;100207.00;;;15.04;86.28
11041;BME280;5573;49.592;8.662;2022-07-15T01:00:09;100202.66;;;15.00;85.32
11041;BME280;5573;49.592;8.662;2022-07-15T01:02:39;100204.28;;;14.90;86.05
11041;BME280;5573;49.592;8.662;2022-07-15T01:05:10;100204.69;;;14.89;86.03
11041;BME280;5573;49.592;8.662;2022-07-15T01:07:38;100199.50;;;14.98;84.12
11041;BME280;5573;49.592;8.662;2022-07-15T01:10:07;100208.19;;;15.03;83.03
11041;BME280;5573;49.592;8.662;2022-07-15T01:12:36;100189.97;;;15.10;82.91
11041;BME280;5573;49.592;8.662;2022-07-15T01:15:06;100195.06;;;15.18;79.98
11041;BME280;5573;49.592;8.662;2022-07-15T01:17:34;100191.84;;;15.23;77.62
11041;BME280;5573;49.592;8.662;2022-07-15T01:20:10;100193.03;;;15.26;80.18
11041;BME280;5573;49.592;8.662;2022-07-15T01:22:50;100200.53;;;15.29;78.67
11041;BME280;5573;49.592;8.662;2022-07-15T01:25:19;100192.25;;;15.25;78.53
11041;BME280;5573;49.592;8.662;2022-07-15T01:27:47;100197.84;;;15.11;78.14
11041;BME280;5573;49.592;8.662;2022-07-15T01:30:21;100204.66;;;14.96;78.24
11041;BME280;5573;49.592;8.662;2022-07-15T01:32:50;100199.16;;;14.85;78.67
11041;BME280;5573;49.592;8.662;2022-07-15T01:35:18;100200.75;;;14.75;78.95
11041;BME280;5573;49.592;8.662;2022-07-15T01:37:49;100202.34;;;14.73;80.32
11041;BME280;5573;49.592;8.662;2022-07-15T01:40:17;100200.75;;;14.75;79.87
11041;BME280;5573;49.592;8.662;2022-07-15T01:42:45;100203.91;;;14.77;82.05
11041;BME280;5573;49.592;8.662;2022-07-15T01:45:14;100197.16;;;14.89;82.87
11041;BME280;5573;49.592;8.662;2022-07-15T01:47:47;100203.91;;;14.84;82.81
11041;BME280;5573;49.592;8.662;2022-07-15T01:50:26;100201.88;;;14.92;83.12
11041;BME280;5573;49.592;8.662;2022-07-15T01:52:58;100214.16;;;14.95;84.27
11041;BME280;5573;49.592;8.662;2022-07-15T01:55:28;100212.63;;;14.87;85.34
11041;BME280;5573;49.592;8.662;2022-07-15T01:57:57;100213.81;;;14.78;86.46
11041;BME280;5573;49.592;8.662;2022-07-15T02:00:25;100211.88;;;14.72;86.81
11041;BME280;5573;49.592;8.662;2022-07-15T02:02:53;100217.44;;;14.61;87.19
11041;BME280;5573;49.592;8.662;2022-07-15T02:05:21;100216.63;;;14.53;88.46
11041;BME280;5573;49.592;8.662;2022-07-15T02:07:52;100208.72;;;14.41;90.09
11041;BME280;5573;49.592;8.662;2022-07-15T02:10:22;100210.72;;;14.26;91.88
11041;BME280;5573;49.592;8.662;2022-07-15T02:12:52;100217.06;;;14.09;92.62
11041;BME280;5573;49.592;8.662;2022-07-15T02:15:25;100222.59;;;14.05;94.36
11041;BME280;5573;49.592;8.662;2022-07-15T02:17:55;100211.50;;;14.27;94.98
11041;BME280;5573;49.592;8.662;2022-07-15T02:20:28;100217.03;;;14.27;92.26
11041;BME280;5573;49.592;8.662;2022-07-15T02:22:56;100216.25;;;14.08;95.96
11041;BME280;5573;49.592;8.662;2022-07-15T02:25:26;100206.41;;;14.21;94.40
11041;BME280;5573;49.592;8.662;2022-07-15T02:27:56;100212.31;;;14.09;94.42
11041;BME280;5573;49.592;8.662;2022-07-15T02:30:24;100211.94;;;13.96;96.66
11041;BME280;5573;49.592;8.662;2022-07-15T02:32:53;100204.00;;;13.91;99.65
11041;BME280;5573;49.592;8.662;2022-07-15T02:35:21;100206.78;;;13.88;98.79
11041;BME280;5573;49.592;8.662;2022-07-15T02:37:50;100213.06;;;13.70;100.00
11041;BME280;5573;49.592;8.662;2022-07-15T02:40:18;100213.09;;;13.67;100.00
11041;BME280;5573;49.592;8.662;2022-07-15T02:42:49;100210.72;;;13.58;100.00
11041;BME280;5573;49.592;8.662;2022-07-15T02:45:18;100197.22;;;13.38;100.00
11041;BME280;5573;49.592;8.662;2022-07-15T02:47:46;100193.59;;;13.23;100.00
11041;BME280;5573;49.592;8.662;2022-07-15T02:50:19;100195.53;;;13.09;100.00
11041;BME280;5573;49.592;8.662;2022-07-15T02:52:48;100208.97;;;13.17;100.00
11041;BME280;5573;49.592;8.662;2022-07-15T02:55:17;100210.94;;;13.13;100.00
11041;BME280;5573;49.592;8.662;2022-07-15T02:57:45;100210.56;;;13.15;100.00
11041;BME280;5573;49.592;8.662;2022-07-15T03:00:15;100216.13;;;13.22;100.00
11041;BME280;5573;49.592;8.662;2022-07-15T03:02:45;100214.91;;;13.16;100.00
11041;BME280;5573;49.592;8.662;2022-07-15T03:05:14;100224.75;;;13.10;100.00
11041;BME280;5573;49.592;8.662;2022-07-15T03:07:42;100221.97;;;13.13;100.00
11041;BME280;5573;49.592;8.662;2022-07-15T03:10:12;100226.72;;;13.13;100.00
11041;BME280;5573;49.592;8.662;2022-07-15T03:12:40;100223.56;;;13.11;100.00
11041;BME280;5573;49.592;8.662;2022-07-15T03:15:09;100224.72;;;13.06;100.00
11041;BME280;5573;49.592;8.662;2022-07-15T03:17:39;100227.47;;;13.02;100.00
11041;BME280;5573;49.592;8.662;2022-07-15T03:20:09;100231.41;;;12.98;100.00
11041;BME280;5573;49.592;8.662;2022-07-15T03:22:44;100233.00;;;12.99;100.00
11041;BME280;5573;49.592;8.662;2022-07-15T03:25:12;100243.22;;;12.91;100.00
11041;BME280;5573;49.592;8.662;2022-07-15T03:27:41;100241.97;;;12.81;100.00
11041;BME280;5573;49.592;8.662;2022-07-15T03:30:11;100252.25;;;12.85;100.00
11041;BME280;5573;49.592;8.662;2022-07-15T03:32:42;100252.22;;;12.81;100.00
11041;BME280;5573;49.592;8.662;2022-07-15T03:35:10;100250.63;;;12.76;100.00
11041;BME280;5573;49.592;8.662;2022-07-15T03:37:39;100249.09;;;12.82;100.00
11041;BME280;5573;49.592;8.662;2022-07-15T03:40:09;100250.31;;;12.89;100.00
11041;BME280;5573;49.592;8.662;2022-07-15T03:42:37;100248.34;;;12.93;100.00
11041;BME280;5573;49.592;8.662;2022-07-15T03:45:06;100249.56;;;12.99;100.00
11041;BME280;5573;49.592;8.662;2022-07-15T03:47:34;100249.50;;;12.92;100.00
11041;BME280;5573;49.592;8.662;2022-07-15T03:50:08;100249.94;;;12.97;100.00
11041;BME280;5573;49.592;8.662;2022-07-15T03:52:39;100252.34;;;12.99;100.00
11041;BME280;5573;49.592;8.662;2022-07-15T03:55:08;100251.09;;;12.96;100.00
11041;BME280;5573;49.592;8.662;2022-07-15T03:57:38;100256.22;;;12.94;100.00
11041;BME280;5573;49.592;8.662;2022-07-15T04:00:07;100268.09;;;13.02;100.00
11041;BME280;5573;49.592;8.662;2022-07-15T04:02:41;100258.59;;;12.96;100.00
11041;BME280;5573;49.592;8.662;2022-07-15T04:05:15;100268.50;;;13.00;100.00
11041;BME280;5573;49.592;8.662;2022-07-15T04:07:43;100188.19;;;12.54;100.00
11041;BME280;5573;49.592;8.662;2022-07-15T04:10:11;100262.75;;;13.31;100.00
11041;BME280;5573;49.592;8.662;2022-07-15T04:12:40;100261.97;;;13.34;100.00
11041;BME280;5573;49.592;8.662;2022-07-15T04:15:13;100244.91;;;13.21;100.00
11041;BME280;5573;49.592;8.662;2022-07-15T04:17:44;100262.28;;;13.25;100.00
11041;BME280;5573;49.592;8.662;2022-07-15T04:20:19;100263.50;;;13.24;100.00
11041;BME280;5573;49.592;8.662;2022-07-15T04:22:50;100271.44;;;13.33;100.00
11041;BME280;5573;49.592;8.662;2022-07-15T04:25:20;100275.03;;;13.48;100.00
11041;BME280;5573;49.592;8.662;2022-07-15T04:27:48;100284.19;;;13.73;97.92
11041;BME280;5573;49.592;8.662;2022-07-15T04:30:21;100269.97;;;13.78;99.45
11041;BME280;5573;49.592;8.662;2022-07-15T04:32:50;100272.34;;;13.80;96.64
11041;BME280;5573;49.592;8.662;2022-07-15T04:35:21;100267.63;;;13.84;99.38
11041;BME280;5573;49.592;8.662;2022-07-15T04:37:56;100272.38;;;13.87;96.13
11041;BME280;5573;49.592;8.662;2022-07-15T04:40:24;100272.38;;;13.87;92.59
11041;BME280;5573;49.592;8.662;2022-07-15T04:42:53;100277.13;;;14.05;94.48
11041;BME280;5573;49.592;8.662;2022-07-15T04:45:21;100279.91;;;14.19;95.58
11041;BME280;5573;49.592;8.662;2022-07-15T04:47:49;100272.78;;;14.32;96.11
11041;BME280;5573;49.592;8.662;2022-07-15T04:50:27;100270.00;;;14.25;98.49
11041;BME280;5573;49.592;8.662;2022-07-15T04:53:12;100274.75;;;14.10;100.00
11041;BME280;5573;49.592;8.662;2022-07-15T04:55:44;100276.34;;;14.26;100.00
11041;BME280;5573;49.592;8.662;2022-07-15T04:58:12;100280.28;;;14.24;100.00
11041;BME280;5573;49.592;8.662;2022-07-15T05:00:41;100274.38;;;14.05;100.00
11041;BME280;5573;49.592;8.662;2022-07-15T05:03:11;100283.09;;;14.21;100.00
11041;BME280;5573;49.592;8.662;2022-07-15T05:05:41;100277.16;;;14.19;100.00
11041;BME280;5573;49.592;8.662;2022-07-15T05:08:11;100285.84;;;14.17;100.00
11041;BME280;5573;49.592;8.662;2022-07-15T05:10:47;100292.97;;;14.15;100.00
11041;BME280;5573;49.592;8.662;2022-07-15T05:13:16;100285.84;;;14.07;100.00
11041;BME280;5573;49.592;8.662;2022-07-15T05:15:46;100294.91;;;14.07;100.00
11041;BME280;5573;49.592;8.662;2022-07-15T05:18:18;100293.72;;;14.12;100.00
11041;BME280;5573;49.592;8.662;2022-07-15T05:20:49;100293.34;;;14.24;100.00
11041;BME280;5573;49.592;8.662;2022-07-15T05:23:17;100296.88;;;14.46;100.00
11041;BME280;5573;49.592;8.662;2022-07-15T05:25:51;100294.09;;;14.82;100.00
11041;BME280;5573;49.592;8.662;2022-07-15T05:28:20;100293.25;;;15.10;95.45
11041;BME280;5573;49.592;8.662;2022-07-15T05:30:49;100297.06;;;15.45;91.00
11041;BME280;5573;49.592;8.662;2022-07-15T05:33:17;100298.88;;;15.88;84.51
11041;BME280;5573;49.592;8.662;2022-07-15T05:35:47;100302.47;;;16.40;82.93
11041;BME280;5573;49.592;8.662;2022-07-15T05:38:24;100304.59;;;16.67;79.95
11041;BME280;5573;49.592;8.662;2022-07-15T05:40:53;100309.53;;;16.94;79.79
11041;BME280;5573;49.592;8.662;2022-07-15T05:43:23;100309.00;;;17.06;74.16
11041;BME280;5573;49.592;8.662;2022-07-15T05:45:51;100314.06;;;17.15;73.06
11041;BME280;5573;49.592;8.662;2022-07-15T05:48:22;100318.72;;;17.25;73.80
11041;BME280;5573;49.592;8.662;2022-07-15T05:50:53;100314.31;;;17.27;75.52
11041;BME280;5573;49.592;8.662;2022-07-15T05:53:23;100276.28;;;17.17;73.36
11041;BME280;5573;49.592;8.662;2022-07-15T05:55:51;100328.09;;;17.35;73.82
11041;BME280;5573;49.592;8.662;2022-07-15T05:58:21;100320.88;;;17.10;69.24
11041;BME280;5573;49.592;8.662;2022-07-15T06:00:50;100318.41;;;17.16;69.18
11041;BME280;5573;49.592;8.662;2022-07-15T06:03:20;100326.22;;;17.28;71.59
11041;BME280;5573;49.592;8.662;2022-07-15T06:05:48;100325.16;;;17.49;74.29
11041;BME280;5573;49.592;8.662;2022-07-15T06:08:16;100325.31;;;17.69;71.86
11041;BME280;5573;49.592;8.662;2022-07-15T06:10:46;100325.16;;;17.80;66.02
11041;BME280;5573;49.592;8.662;2022-07-15T06:13:14;100328.88;;;18.00;65.47
11041;BME280;5573;49.592;8.662;2022-07-15T06:15:45;100270.78;;;17.75;63.12
11041;BME280;5573;49.592;8.662;2022-07-15T06:18:18;100325.56;;;18.36;62.44
11041;BME280;5573;49.592;8.662;2022-07-15T06:20:48;100326.75;;;18.59;60.29
11041;BME280;5573;49.592;8.662;2022-07-15T06:23:16;100338.03;;;18.52;59.74
11041;BME280;5573;49.592;8.662;2022-07-15T06:25:45;100341.91;;;18.58;57.54
11041;BME280;5573;49.592;8.662;2022-07-15T06:28:13;100345.47;;;18.58;57.53
11041;BME280;5573;49.592;8.662;2022-07-15T06:30:43;100346.75;;;18.54;58.00
11041;BME280;5573;49.592;8.662;2022-07-15T06:33:11;100343.19;;;18.53;59.69
11041;BME280;5573;49.592;8.662;2022-07-15T06:35:41;100343.47;;;18.59;59.54
11041;BME280;5573;49.592;8.662;2022-07-15T06:38:11;100343.59;;;18.52;59.70
11041;BME280;5573;49.592;8.662;2022-07-15T06:40:41;100337.31;;;18.71;58.78
11041;BME280;5573;49.592;8.662;2022-07-15T06:43:12;100334.31;;;18.85;57.31
11041;BME280;5573;49.592;8.662;2022-07-15T06:45:54;100347.63;;;18.98;56.38
11041;BME280;5573;49.592;8.662;2022-07-15T06:48:22;100351.56;;;19.20;55.92
11041;BME280;5573;49.592;8.662;2022-07-15T06:50:53;100343.34;;;19.33;56.59
11041;BME280;5573;49.592;8.662;2022-07-15T06:53:21;100351.72;;;19.33;56.53
11041;BME280;5573;49.592;8.662;2022-07-15T06:55:49;100349.28;;;19.15;56.14
11041;BME280;5573;49.592;8.662;2022-07-15T06:58:18;100346.22;;;19.29;57.29
11041;BME280;5573;49.592;8.662;2022-07-15T07:00:46;100339.69;;;19.56;57.75
11041;BME280;5573;49.592;8.662;2022-07-15T07:03:14;100349.47;;;20.21;53.77
11041;BME280;5573;49.592;8.662;2022-07-15T07:06:02;100344.34;;;21.14;51.38
11041;BME280;5573;49.592;8.662;2022-07-15T07:08:32;100349.59;;;22.09;48.38
11041;BME280;5573;49.592;8.662;2022-07-15T07:11:02;100349.41;;;22.16;47.04
11041;BME280;5573;49.592;8.662;2022-07-15T07:13:31;100347.00;;;22.66;44.49
11041;BME280;5573;49.592;8.662;2022-07-15T07:15:59;100346.28;;;23.22;43.79
11041;BME280;5573;49.592;8.662;2022-07-15T07:18:28;100343.13;;;23.86;41.50
11041;BME280;5573;49.592;8.662;2022-07-15T07:20:56;100342.72;;;23.97;41.46
11041;BME280;5573;49.592;8.662;2022-07-15T07:23:24;100351.59;;;24.45;40.17
11041;BME280;5573;49.592;8.662;2022-07-15T07:25:53;100359.94;;;24.49;39.90
11041;BME280;5573;49.592;8.662;2022-07-15T07:28:21;100355.63;;;25.03;39.44
11041;BME280;5573;49.592;8.662;2022-07-15T07:30:50;100353.72;;;24.54;39.55
11041;BME280;5573;49.592;8.662;2022-07-15T07:33:21;100344.09;;;23.70;42.46
11041;BME280;5573;49.592;8.662;2022-07-15T07:35:49;100339.47;;;23.10;43.33
11041;BME280;5573;49.592;8.662;2022-07-15T07:38:18;100333.06;;;22.27;45.21
11041;BME280;5573;49.592;8.662;2022-07-15T07:40:46;100329.34;;;22.43;45.41
11041;BME280;5573;49.592;8.662;2022-07-15T07:43:14;100332.25;;;23.22;43.40
11041;BME280;5573;49.592;8.662;2022-07-15T07:45:43;100339.34;;;24.52;40.26
11041;BME280;5573;49.592;8.662;2022-07-15T07:48:13;100339.06;;;24.19;40.88
11041;BME280;5573;49.592;8.662;2022-07-15T07:50:43;100329.63;;;23.50;42.31
11041;BME280;5573;49.592;8.662;2022-07-15T07:53:11;100338.38;;;23.74;41.55
11041;BME280;5573;49.592;8.662;2022-07-15T07:55:39;100336.34;;;24.06;40.91
11041;BME280;5573;49.592;8.662;2022-07-15T07:58:07;100334.00;;;24.04;40.62
11041;BME280;5573;49.592;8.662;2022-07-15T08:00:35;100331.56;;;23.84;41.06
11041;BME280;5573;49.592;8.662;2022-07-15T08:03:03;100350.94;;;23.69;40.88
11041;BME280;5573;49.592;8.662;2022-07-15T08:05:32;100264.47;;;23.55;40.76
11041;BME280;5573;49.592;8.662;2022-07-15T08:08:07;100342.84;;;24.43;41.21
11041;BME280;5573;49.592;8.662;2022-07-15T08:10:35;100338.44;;;24.73;40.28
11041;BME280;5573;49.592;8.662;2022-07-15T08:13:07;100348.72;;;24.18;40.64
11041;BME280;5573;49.592;8.662;2022-07-15T08:15:35;100344.03;;;24.55;40.19
11041;BME280;5573;49.592;8.662;2022-07-15T08:18:03;100344.06;;;25.10;39.53
11041;BME280;5573;49.592;8.662;2022-07-15T08:20:33;100347.63;;;24.65;40.63
11041;BME280;5573;49.592;8.662;2022-07-15T08:23:02;100348.78;;;24.36;40.96
11041;BME280;5573;49.592;8.662;2022-07-15T08:25:32;100348.72;;;23.86;42.27
11041;BME280;5573;49.592;8.662;2022-07-15T08:28:00;100337.59;;;23.51;43.08
11041;BME280;5573;49.592;8.662;2022-07-15T08:30:30;100335.31;;;23.59;42.18
11041;BME280;5573;49.592;8.662;2022-07-15T08:32:58;100302.63;;;23.21;42.80
11041;BME280;5573;49.592;8.662;2022-07-15T08:35:27;100323.28;;;23.81;43.27
11041;BME280;5573;49.592;8.662;2022-07-15T08:37:56;100340.13;;;24.12;43.03
11041;BME280;5573;49.592;8.662;2022-07-15T08:40:25;100345.56;;;24.56;41.25
11041;BME280;5573;49.592;8.662;2022-07-15T08:42:53;100341.75;;;23.91;42.40
11041;BME280;5573;49.592;8.662;2022-07-15T08:45:22;100338.84;;;23.28;43.64
11041;BME280;5573;49.592;8.662;2022-07-15T08:47:51;100336.59;;;23.01;44.46
11041;BME280;5573;49.592;8.662;2022-07-15T08:50:21;100335.91;;;23.32;43.98
11041;BME280;5573;49.592;8.662;2022-07-15T08:52:49;100328.66;;;23.44;43.75
11041;BME280;5573;49.592;8.662;2022-07-15T08:55:20;100342.31;;;23.32;44.47
11041;BME280;5573;49.592;8.662;2022-07-15T08:57:49;100335.03;;;23.00;44.62
11041;BME280;5573;49.592;8.662;2022-07-15T09:00:19;100344.91;;;23.05;44.54
11041;BME280;5573;49.592;8.662;2022-07-15T09:02:48;100336.56;;;23.14;43.91
11041;BME280;5573;49.592;8.662;2022-07-15T09:05:23;100343.47;;;23.44;43.93
11041;BME280;5573;49.592;8.662;2022-07-15T09:07:55;100349.03;;;23.79;43.04
11041;BME280;5573;49.592;8.662;2022-07-15T09:10:42;100350.50;;;23.93;42.75
11041;BME280;5573;49.592;8.662;2022-07-15T09:13:11;100305.13;;;24.13;42.06
11041;BME280;5573;49.592;8.662;2022-07-15T09:15:40;100343.03;;;24.40;40.49
11041;BME280;5573;49.592;8.662;2022-07-15T09:18:11;100339.34;;;24.61;40.85
11041;BME280;5573;49.592;8.662;2022-07-15T09:20:40;100340.75;;;24.66;40.49
11041;BME280;5573;49.592;8.662;2022-07-15T09:23:09;100348.56;;;24.52;40.34
11041;BME280;5573;49.592;8.662;2022-07-15T09:25:39;100354.84;;;24.25;41.02
11041;BME280;5573;49.592;8.662;2022-07-15T09:28:07;100350.81;;;24.35;40.80
11041;BME280;5573;49.592;8.662;2022-07-15T09:30:37;100333.03;;;23.98;40.60
11041;BME280;5573;49.592;8.662;2022-07-15T09:33:24;100353.91;;;23.88;41.24
11041;BME280;5573;49.592;8.662;2022-07-15T09:36:07;100327.16;;;23.52;40.69
11041;BME280;5573;49.592;8.662;2022-07-15T09:38:42;100351.06;;;23.34;42.01
11041;BME280;5573;49.592;8.662;2022-07-15T09:41:19;100346.16;;;23.48;42.35
11041;BME280;5573;49.592;8.662;2022-07-15T09:43:51;100351.16;;;23.97;41.61
11041;BME280;5573;49.592;8.662;2022-07-15T09:46:20;100345.06;;;24.48;40.66
11041;BME280;5573;49.592;8.662;2022-07-15T09:48:50;100348.91;;;24.32;40.55
11041;BME280;5573;49.592;8.662;2022-07-15T09:51:20;100358.25;;;24.61;40.43
11041;BME280;5573;49.592;8.662;2022-07-15T09:53:48;100355.03;;;24.40;40.37
11041;BME280;5573;49.592;8.662;2022-07-15T09:56:20;100350.94;;;24.23;41.21
11041;BME280;5573;49.592;8.662;2022-07-15T09:58:52;100343.38;;;24.60;40.87
11041;BME280;5573;49.592;8.662;2022-07-15T10:01:20;100348.13;;;25.00;39.84
11041;BME280;5573;49.592;8.662;2022-07-15T10:03:49;100357.06;;;25.35;38.85
11041;BME280;5573;49.592;8.662;2022-07-15T10:06:17;100350.63;;;25.44;39.38
11041;BME280;5573;49.592;8.662;2022-07-15T10:08:47;100345.88;;;25.69;38.94
11041;BME280;5573;49.592;8.662;2022-07-15T10:11:16;100330.44;;;25.46;39.05
11041;BME280;5573;49.592;8.662;2022-07-15T10:13:57;100342.56;;;25.89;38.47
11041;BME280;5573;49.592;8.662;2022-07-15T10:19:33;100347.69;;;25.29;38.18
11041;BME280;5573;49.592;8.662;2022-07-15T10:22:10;100343.47;;;25.25;39.15
11041;BME280;5573;49.592;8.662;2022-07-15T10:25:02;100336.16;;;25.70;38.28
11041;BME280;5573;49.592;8.662;2022-07-15T10:27:51;100319.22;;;25.37;37.19
11041;BME280;5573;49.592;8.662;2022-07-15T10:30:22;100348.13;;;25.19;37.09
11041;BME280;5573;49.592;8.662;2022-07-15T10:33:11;100338.59;;;25.07;38.02
11041;BME280;5573;49.592;8.662;2022-07-15T10:35:46;100299.50;;;25.27;37.96
11041;BME280;5573;49.592;8.662;2022-07-15T10:38:30;100335.09;;;25.67;37.48
11041;BME280;5573;49.592;8.662;2022-07-15T10:41:00;100335.97;;;25.92;36.36
11041;BME280;5573;49.592;8.662;2022-07-15T10:43:40;100333.06;;;26.44;35.29
11041;BME280;5573;49.592;8.662;2022-07-15T10:46:27;100325.69;;;25.70;35.99
11041;BME280;5573;49.592;8.662;2022-07-15T10:49:27;100324.31;;;25.56;37.99
11041;BME280;5573;49.592;8.662;2022-07-15T10:51:55;100321.34;;;25.60;38.28
11041;BME280;5573;49.592;8.662;2022-07-15T10:54:41;100319.78;;;25.59;38.33
11041;BME280;5573;49.592;8.662;2022-07-15T10:57:11;100319.38;;;25.94;38.77
11041;BME280;5573;49.592;8.662;2022-07-15T10:59:48;100320.91;;;25.43;38.14
11041;BME280;5573;49.592;8.662;2022-07-15T11:02:19;100317.63;;;24.89;38.88
11041;BME280;5573;49.592;8.662;2022-07-15T11:04:48;100313.28;;;24.88;39.13
11041;BME280;5573;49.592;8.662;2022-07-15T11:07:28;100312.81;;;24.90;40.24
11041;BME280;5573;49.592;8.662;2022-07-15T11:10:16;100302.81;;;25.26;39.38
11041;BME280;5573;49.592;8.662;2022-07-15T11:12:59;100312.34;;;25.01;39.46
11041;BME280;5573;49.592;8.662;2022-07-15T11:15:27;100315.16;;;25.01;39.50
11041;BME280;5573;49.592;8.662;2022-07-15T11:17:57;100302.78;;;25.07;39.21
11041;BME280;5573;49.592;8.662;2022-07-15T11:20:36;100298.31;;;25.71;37.63
11041;BME280;5573;49.592;8.662;2022-07-15T11:23:05;100298.97;;;26.08;37.03
11041;BME280;5573;49.592;8.662;2022-07-15T11:25:36;100304.69;;;25.81;37.80
11041;BME280;5573;49.592;8.662;2022-07-15T11:28:10;100298.16;;;25.65;37.92
11041;BME280;5573;49.592;8.662;2022-07-15T11:30:40;100299.94;;;25.53;37.93
11041;BME280;5573;49.592;8.662;2022-07-15T11:33:12;100297.16;;;25.35;38.09
11041;BME280;5573;49.592;8.662;2022-07-15T11:35:47;100302.78;;;24.98;38.29
11041;BME280;5573;49.592;8.662;2022-07-15T11:38:17;100219.88;;;24.07;39.17
11041;BME280;5573;49.592;8.662;2022-07-15T11:40:48;100304.50;;;24.59;39.78
11041;BME280;5573;49.592;8.662;2022-07-15T11:43:34;100293.72;;;24.94;40.04
11041;BME280;5573;49.592;8.662;2022-07-15T11:46:20;100293.34;;;25.56;38.43
11041;BME280;5573;49.592;8.662;2022-07-15T11:48:50;100294.00;;;25.94;37.13
11041;BME280;5573;49.592;8.662;2022-07-15T11:51:24;100294.25;;;26.14;36.84
11041;BME280;5573;49.592;8.662;2022-07-15T11:53:53;100287.16;;;26.43;35.70
11041;BME280;5573;49.592;8.662;2022-07-15T11:56:22;100295.13;;;26.45;35.49
11041;BME280;5573;49.592;8.662;2022-07-15T11:58:51;100283.38;;;26.70;34.64
11041;BME280;5573;49.592;8.662;2022-07-15T12:01:21;100281.47;;;26.76;34.25
11041;BME280;5573;49.592;8.662;2022-07-15T12:03:52;100281.03;;;27.08;33.58
11041;BME280;5573;49.592;8.662;2022-07-15T12:06:22;100281.56;;;26.10;34.76
11041;BME280;5573;49.592;8.662;2022-07-15T12:08:52;100285.06;;;25.44;35.73
11041;BME280;5573;49.592;8.662;2022-07-15T12:11:22;100275.88;;;25.15;36.26
11041;BME280;5573;49.592;8.662;2022-07-15T12:13:53;100273.06;;;25.25;36.97
11041;BME280;5573;49.592;8.662;2022-07-15T12:16:25;100277.88;;;25.94;35.77
11041;BME280;5573;49.592;8.662;2022-07-15T12:18:56;100275.06;;;25.94;35.17
11041;BME280;5573;49.592;8.662;2022-07-15T12:21:25;100282.69;;;26.61;35.18
11041;BME280;5573;49.592;8.662;2022-07-15T12:24:05;100274.59;;;26.92;34.31
11041;BME280;5573;49.592;8.662;2022-07-15T12:26:35;100276.97;;;26.70;34.21
11041;BME280;5573;49.592;8.662;2022-07-15T12:29:07;100276.75;;;26.01;35.57
11041;BME280;5573;49.592;8.662;2022-07-15T12:31:37;100274.28;;;25.51;36.41
11041;BME280;5573;49.592;8.662;2022-07-15T12:34:07;100269.69;;;25.63;37.03
11041;BME280;5573;49.592;8.662;2022-07-15T12:36:36;100271.75;;;25.53;36.85
11041;BME280;5573;49.592;8.662;2022-07-15T12:39:08;100275.03;;;26.04;36.70
11041;BME280;5573;49.592;8.662;2022-07-15T12:41:43;100263.97;;;26.87;35.30
11041;BME280;5573;49.592;8.662;2022-07-15T12:44:11;100283.16;;;27.13;33.49
11041;BME280;5573;49.592;8.662;2022-07-15T12:46:51;100267.44;;;27.36;32.99
11041;BME280;5573;49.592;8.662;2022-07-15T12:49:44;100279.22;;;27.49;31.92
11041;BME280;5573;49.592;8.662;2022-07-15T12:52:15;100273.78;;;27.31;31.63
11041;BME280;5573;49.592;8.662;2022-07-15T12:54:43;100279.69;;;26.79;33.46
11041;BME280;5573;49.592;8.662;2022-07-15T12:57:30;100277.84;;;27.45;33.69
11041;BME280;5573;49.592;8.662;2022-07-15T13:00:00;100276.97;;;27.68;32.92
11041;BME280;5573;49.592;8.662;2022-07-15T13:02:31;100277.94;;;27.65;32.27
11041;BME280;5573;49.592;8.662;2022-07-15T13:05:00;100268.72;;;27.35;33.40
11041;BME280;5573;49.592;8.662;2022-07-15T13:07:28;100272.41;;;27.41;34.08
11041;BME280;5573;49.592;8.662;2022-07-15T13:09:55;100276.25;;;27.73;33.82
11041;BME280;5573;49.592;8.662;2022-07-15T13:12:23;100272.84;;;27.69;32.96
11041;BME280;5573;49.592;8.662;2022-07-15T13:14:51;100274.06;;;27.48;32.94
11041;BME280;5573;49.592;8.662;2022-07-15T13:17:18;100266.75;;;27.26;31.78
11041;BME280;5573;49.592;8.662;2022-07-15T13:19:46;100266.44;;;26.70;33.40